sensor_id;sensor_type;location;lat;lon;timestamp;P1;durP1;ratioP1;P2;durP2;ratioP2
59310;SDS011;45078;51.654;21.250;2022-07-24T00:00:57;10.80;;;4.82;;
59310;SDS011;45078;51.654;21.250;2022-07-24T00:03:23;8.85;;;4.65;;
59310;SDS011;45078;51.654;21.250;2022-07-24T00:05:51;7.88;;;4.93;;
59310;SDS011;45078;51.654;21.250;2022-07-24T00:08:18;9.13;;;4.90;;
59310;SDS011;45078;51.654;21.250;2022-07-24T00:10:44;7.57;;;4.75;;
59310;SDS011;45078;51.654;21.250;2022-07-24T00:13:10;7.43;;;4.82;;
59310;SDS011;45078;51.654;21.250;2022-07-24T00:15:35;7.28;;;4.80;;
59310;SDS011;45078;51.654;21.250;2022-07-24T00:18:01;8.45;;;5.07;;
59310;SDS011;45078;51.654;21.250;2022-07-24T00:20:27;8.40;;;4.88;;
59310;SDS011;45078;51.654;21.250;2022-07-24T00:22:53;7.20;;;4.95;;
59310;SDS011;45078;51.654;21.250;2022-07-24T00:25:19;8.68;;;5.00;;
59310;SDS011;45078;51.654;21.250;2022-07-24T00:27:45;6.82;;;4.18;;
59310;SDS011;45078;51.654;21.250;2022-07-24T00:30:11;7.97;;;4.53;;
59310;SDS011;45078;51.654;21.250;2022-07-24T00:32:37;8.85;;;5.32;;
59310;SDS011;45078;51.654;21.250;2022-07-24T00:35:03;7.10;;;4.85;;
59310;SDS011;45078;51.654;21.250;2022-07-24T00:37:29;9.68;;;4.75;;
59310;SDS011;45078;51.654;21.250;2022-07-24T00:39:55;7.88;;;4.70;;
59310;SDS011;45078;51.654;21.250;2022-07-24T00:42:21;8.05;;;5.18;;
59310;SDS011;45078;51.654;21.250;2022-07-24T00:44:47;8.02;;;4.60;;
59310;SDS011;45078;51.654;21.250;2022-07-24T00:47:13;8.85;;;5.43;;
59310;SDS011;45078;51.654;21.250;2022-07-24T00:49:39;7.45;;;4.70;;
59310;SDS011;45078;51.654;21.250;2022-07-24T00:52:05;9.45;;;5.18;;
59310;SDS011;45078;51.654;21.250;2022-07-24T00:54:30;8.15;;;4.93;;
59310;SDS011;45078;51.654;21.250;2022-07-24T00:56:56;9.70;;;5.78;;
59310;SDS011;45078;51.654;21.250;2022-07-24T00:59:23;8.77;;;5.00;;
59310;SDS011;45078;51.654;21.250;2022-07-24T01:01:50;7.95;;;5.47;;
59310;SDS011;45078;51.654;21.250;2022-07-24T01:04:16;9.18;;;5.28;;
59310;SDS011;45078;51.654;21.250;2022-07-24T01:06:43;8.63;;;4.90;;
59310;SDS011;45078;51.654;21.250;2022-07-24T01:09:10;9.73;;;5.28;;
59310;SDS011;45078;51.654;21.250;2022-07-24T01:11:36;8.35;;;5.07;;
59310;SDS011;45078;51.654;21.250;2022-07-24T01:14:03;8.45;;;5.07;;
59310;SDS011;45078;51.654;21.250;2022-07-24T01:16:31;7.93;;;4.85;;
59310;SDS011;45078;51.654;21.250;2022-07-24T01:18:58;10.13;;;5.10;;
59310;SDS011;45078;51.654;21.250;2022-07-24T01:21:24;9.60;;;5.22;;
59310;SDS011;45078;51.654;21.250;2022-07-24T01:23:50;8.88;;;5.38;;
59310;SDS011;45078;51.654;21.250;2022-07-24T01:26:16;10.70;;;5.88;;
59310;SDS011;45078;51.654;21.250;2022-07-24T01:28:42;9.52;;;6.03;;
59310;SDS011;45078;51.654;21.250;2022-07-24T01:31:08;9.10;;;5.68;;
59310;SDS011;45078;51.654;21.250;2022-07-24T01:33:34;9.25;;;5.63;;
59310;SDS011;45078;51.654;21.250;2022-07-24T01:36:00;12.73;;;5.82;;
59310;SDS011;45078;51.654;21.250;2022-07-24T01:38:26;10.27;;;6.07;;
59310;SDS011;45078;51.654;21.250;2022-07-24T01:40:52;10.25;;;6.40;;
59310;SDS011;45078;51.654;21.250;2022-07-24T01:43:18;12.95;;;6.95;;
59310;SDS011;45078;51.654;21.250;2022-07-24T01:45:44;10.98;;;6.80;;
59310;SDS011;45078;51.654;21.250;2022-07-24T01:48:10;11.30;;;6.38;;
59310;SDS011;45078;51.654;21.250;2022-07-24T01:50:36;15.52;;;7.75;;
59310;SDS011;45078;51.654;21.250;2022-07-24T01:53:02;14.00;;;7.00;;
59310;SDS011;45078;51.654;21.250;2022-07-24T01:55:29;12.90;;;7.70;;
59310;SDS011;45078;51.654;21.250;2022-07-24T01:57:55;14.63;;;8.18;;
59310;SDS011;45078;51.654;21.250;2022-07-24T02:00:21;16.42;;;8.55;;
59310;SDS011;45078;51.654;21.250;2022-07-24T02:02:47;17.13;;;9.65;;
59310;SDS011;45078;51.654;21.250;2022-07-24T02:05:13;16.15;;;8.95;;
59310;SDS011;45078;51.654;21.250;2022-07-24T02:07:40;17.30;;;9.38;;
59310;SDS011;45078;51.654;21.250;2022-07-24T02:10:07;16.52;;;8.57;;
59310;SDS011;45078;51.654;21.250;2022-07-24T02:12:34;16.98;;;8.98;;
59310;SDS011;45078;51.654;21.250;2022-07-24T02:15:00;20.00;;;9.55;;
59310;SDS011;45078;51.654;21.250;2022-07-24T02:17:26;18.30;;;9.88;;
59310;SDS011;45078;51.654;21.250;2022-07-24T02:19:52;16.80;;;8.85;;
59310;SDS011;45078;51.654;21.250;2022-07-24T02:22:18;19.73;;;9.90;;
59310;SDS011;45078;51.654;21.250;2022-07-24T02:24:44;14.63;;;9.35;;
59310;SDS011;45078;51.654;21.250;2022-07-24T02:27:10;14.20;;;8.98;;
59310;SDS011;45078;51.654;21.250;2022-07-24T02:29:35;16.98;;;10.43;;
59310;SDS011;45078;51.654;21.250;2022-07-24T02:32:02;15.23;;;9.13;;
59310;SDS011;45078;51.654;21.250;2022-07-24T02:34:28;15.95;;;9.10;;
59310;SDS011;45078;51.654;21.250;2022-07-24T02:36:53;17.38;;;9.30;;
59310;SDS011;45078;51.654;21.250;2022-07-24T02:39:19;16.15;;;10.07;;
59310;SDS011;45078;51.654;21.250;2022-07-24T02:41:45;17.75;;;9.88;;
59310;SDS011;45078;51.654;21.250;2022-07-24T02:44:11;15.73;;;9.13;;
59310;SDS011;45078;51.654;21.250;2022-07-24T02:46:37;19.05;;;9.50;;
59310;SDS011;45078;51.654;21.250;2022-07-24T02:49:03;19.08;;;8.30;;
59310;SDS011;45078;51.654;21.250;2022-07-24T02:51:29;15.10;;;8.90;;
59310;SDS011;45078;51.654;21.250;2022-07-24T02:53:55;15.93;;;8.23;;
59310;SDS011;45078;51.654;21.250;2022-07-24T02:56:20;17.33;;;9.38;;
59310;SDS011;45078;51.654;21.250;2022-07-24T02:58:46;13.27;;;7.47;;
59310;SDS011;45078;51.654;21.250;2022-07-24T03:01:12;13.07;;;8.32;;
59310;SDS011;45078;51.654;21.250;2022-07-24T03:03:38;16.50;;;8.10;;
59310;SDS011;45078;51.654;21.250;2022-07-24T03:06:04;13.95;;;8.43;;
59310;SDS011;45078;51.654;21.250;2022-07-24T03:08:30;17.35;;;8.63;;
59310;SDS011;45078;51.654;21.250;2022-07-24T03:10:56;16.35;;;8.40;;
59310;SDS011;45078;51.654;21.250;2022-07-24T03:13:22;22.25;;;8.40;;
59310;SDS011;45078;51.654;21.250;2022-07-24T03:15:48;14.68;;;7.35;;
59310;SDS011;45078;51.654;21.250;2022-07-24T03:18:14;10.70;;;5.97;;
59310;SDS011;45078;51.654;21.250;2022-07-24T03:20:40;10.00;;;5.63;;
59310;SDS011;45078;51.654;21.250;2022-07-24T03:23:05;10.00;;;3.92;;
59310;SDS011;45078;51.654;21.250;2022-07-24T03:25:31;5.53;;;3.20;;
59310;SDS011;45078;51.654;21.250;2022-07-24T03:27:57;6.82;;;3.40;;
59310;SDS011;45078;51.654;21.250;2022-07-24T03:30:23;3.90;;;2.20;;
59310;SDS011;45078;51.654;21.250;2022-07-24T03:32:49;5.60;;;2.58;;
59310;SDS011;45078;51.654;21.250;2022-07-24T03:35:14;3.70;;;2.15;;
59310;SDS011;45078;51.654;21.250;2022-07-24T03:37:40;5.30;;;2.15;;
59310;SDS011;45078;51.654;21.250;2022-07-24T03:40:06;4.32;;;2.17;;
59310;SDS011;45078;51.654;21.250;2022-07-24T03:42:33;2.88;;;2.00;;
59310;SDS011;45078;51.654;21.250;2022-07-24T03:44:59;5.68;;;1.55;;
59310;SDS011;45078;51.654;21.250;2022-07-24T03:47:25;3.42;;;1.63;;
59310;SDS011;45078;51.654;21.250;2022-07-24T03:49:51;3.90;;;1.30;;
59310;SDS011;45078;51.654;21.250;2022-07-24T03:52:17;1.83;;;1.20;;
59310;SDS011;45078;51.654;21.250;2022-07-24T03:54:43;3.45;;;1.27;;
59310;SDS011;45078;51.654;21.250;2022-07-24T03:57:09;2.60;;;1.00;;
59310;SDS011;45078;51.654;21.250;2022-07-24T03:59:34;2.30;;;1.08;;
59310;SDS011;45078;51.654;21.250;2022-07-24T04:02:00;1.88;;;1.20;;
59310;SDS011;45078;51.654;21.250;2022-07-24T04:04:26;3.05;;;1.08;;
59310;SDS011;45078;51.654;21.250;2022-07-24T04:06:52;1.77;;;1.05;;
59310;SDS011;45078;51.654;21.250;2022-07-24T04:09:18;10.57;;;1.33;;
59310;SDS011;45078;51.654;21.250;2022-07-24T04:11:44;0.98;;;0.80;;
59310;SDS011;45078;51.654;21.250;2022-07-24T04:14:11;1.55;;;0.70;;
59310;SDS011;45078;51.654;21.250;2022-07-24T04:16:37;1.02;;;0.70;;
59310;SDS011;45078;51.654;21.250;2022-07-24T04:19:03;1.85;;;1.08;;
59310;SDS011;45078;51.654;21.250;2022-07-24T04:21:29;2.40;;;0.90;;
59310;SDS011;45078;51.654;21.250;2022-07-24T04:23:55;2.30;;;1.23;;
59310;SDS011;45078;51.654;21.250;2022-07-24T04:26:21;2.05;;;1.05;;
59310;SDS011;45078;51.654;21.250;2022-07-24T04:28:47;1.45;;;0.88;;
59310;SDS011;45078;51.654;21.250;2022-07-24T04:31:13;3.50;;;1.90;;
59310;SDS011;45078;51.654;21.250;2022-07-24T04:33:39;5.25;;;2.40;;
59310;SDS011;45078;51.654;21.250;2022-07-24T04:36:05;3.75;;;1.38;;
59310;SDS011;45078;51.654;21.250;2022-07-24T04:38:32;2.53;;;1.35;;
59310;SDS011;45078;51.654;21.250;2022-07-24T04:40:58;2.30;;;1.30;;
59310;SDS011;45078;51.654;21.250;2022-07-24T04:43:24;8.90;;;1.33;;
59310;SDS011;45078;51.654;21.250;2022-07-24T04:45:50;1.90;;;1.13;;
59310;SDS011;45078;51.654;21.250;2022-07-24T04:48:16;3.55;;;1.30;;
59310;SDS011;45078;51.654;21.250;2022-07-24T04:50:42;2.55;;;1.40;;
59310;SDS011;45078;51.654;21.250;2022-07-24T04:53:08;3.00;;;0.98;;
59310;SDS011;45078;51.654;21.250;2022-07-24T04:55:34;1.90;;;1.10;;
59310;SDS011;45078;51.654;21.250;2022-07-24T04:58:00;2.90;;;1.30;;
59310;SDS011;45078;51.654;21.250;2022-07-24T05:00:26;4.47;;;1.35;;
59310;SDS011;45078;51.654;21.250;2022-07-24T05:02:52;1.88;;;1.00;;
59310;SDS011;45078;51.654;21.250;2022-07-24T05:05:18;3.10;;;1.48;;
59310;SDS011;45078;51.654;21.250;2022-07-24T05:07:44;1.50;;;1.10;;
59310;SDS011;45078;51.654;21.250;2022-07-24T05:10:10;1.52;;;0.95;;
59310;SDS011;45078;51.654;21.250;2022-07-24T05:12:35;1.35;;;0.90;;
59310;SDS011;45078;51.654;21.250;2022-07-24T05:15:02;1.35;;;0.98;;
59310;SDS011;45078;51.654;21.250;2022-07-24T05:17:28;1.63;;;0.98;;
59310;SDS011;45078;51.654;21.250;2022-07-24T05:19:54;1.40;;;0.98;;
59310;SDS011;45078;51.654;21.250;2022-07-24T05:22:20;1.88;;;0.98;;
59310;SDS011;45078;51.654;21.250;2022-07-24T05:24:46;2.40;;;0.60;;
59310;SDS011;45078;51.654;21.250;2022-07-24T05:27:12;3.80;;;1.10;;
59310;SDS011;45078;51.654;21.250;2022-07-24T05:29:41;1.63;;;1.00;;
59310;SDS011;45078;51.654;21.250;2022-07-24T05:32:07;2.67;;;0.80;;
59310;SDS011;45078;51.654;21.250;2022-07-24T05:34:33;2.83;;;0.75;;
59310;SDS011;45078;51.654;21.250;2022-07-24T05:36:59;2.38;;;0.85;;
59310;SDS011;45078;51.654;21.250;2022-07-24T05:39:24;1.08;;;0.80;;
59310;SDS011;45078;51.654;21.250;2022-07-24T05:41:50;1.23;;;0.68;;
59310;SDS011;45078;51.654;21.250;2022-07-24T05:44:16;1.63;;;0.98;;
59310;SDS011;45078;51.654;21.250;2022-07-24T05:46:42;1.08;;;0.70;;
59310;SDS011;45078;51.654;21.250;2022-07-24T05:49:08;1.80;;;0.88;;
59310;SDS011;45078;51.654;21.250;2022-07-24T05:51:34;2.38;;;0.95;;
59310;SDS011;45078;51.654;21.250;2022-07-24T05:54:00;1.80;;;1.00;;
59310;SDS011;45078;51.654;21.250;2022-07-24T05:56:26;7.97;;;1.85;;
59310;SDS011;45078;51.654;21.250;2022-07-24T05:58:52;1.58;;;0.82;;
59310;SDS011;45078;51.654;21.250;2022-07-24T06:01:17;3.13;;;1.00;;
59310;SDS011;45078;51.654;21.250;2022-07-24T06:03:43;1.95;;;0.73;;
59310;SDS011;45078;51.654;21.250;2022-07-24T06:06:09;5.13;;;0.85;;
59310;SDS011;45078;51.654;21.250;2022-07-24T06:08:35;4.20;;;1.10;;
59310;SDS011;45078;51.654;21.250;2022-07-24T06:11:01;2.70;;;1.17;;
59310;SDS011;45078;51.654;21.250;2022-07-24T06:13:27;2.35;;;0.82;;
59310;SDS011;45078;51.654;21.250;2022-07-24T06:15:52;2.40;;;1.05;;
59310;SDS011;45078;51.654;21.250;2022-07-24T06:18:18;1.88;;;0.88;;
59310;SDS011;45078;51.654;21.250;2022-07-24T06:20:44;1.38;;;0.80;;
59310;SDS011;45078;51.654;21.250;2022-07-24T06:23:10;2.35;;;0.82;;
59310;SDS011;45078;51.654;21.250;2022-07-24T06:25:36;1.83;;;0.90;;
59310;SDS011;45078;51.654;21.250;2022-07-24T06:28:02;1.42;;;0.88;;
59310;SDS011;45078;51.654;21.250;2022-07-24T06:30:28;4.22;;;1.20;;
59310;SDS011;45078;51.654;21.250;2022-07-24T06:32:57;1.30;;;0.85;;
59310;SDS011;45078;51.654;21.250;2022-07-24T06:35:24;2.05;;;0.90;;
59310;SDS011;45078;51.654;21.250;2022-07-24T06:37:52;1.88;;;1.00;;
59310;SDS011;45078;51.654;21.250;2022-07-24T06:40:18;1.60;;;0.98;;
59310;SDS011;45078;51.654;21.250;2022-07-24T06:42:45;1.95;;;0.80;;
59310;SDS011;45078;51.654;21.250;2022-07-24T06:45:12;1.48;;;0.77;;
59310;SDS011;45078;51.654;21.250;2022-07-24T06:47:39;2.78;;;0.85;;
59310;SDS011;45078;51.654;21.250;2022-07-24T06:50:06;1.73;;;1.13;;
59310;SDS011;45078;51.654;21.250;2022-07-24T06:52:32;4.90;;;1.02;;
59310;SDS011;45078;51.654;21.250;2022-07-24T06:54:58;1.83;;;1.05;;
59310;SDS011;45078;51.654;21.250;2022-07-24T06:57:24;1.23;;;0.82;;
59310;SDS011;45078;51.654;21.250;2022-07-24T06:59:53;1.17;;;0.90;;
59310;SDS011;45078;51.654;21.250;2022-07-24T07:02:19;1.83;;;0.80;;
59310;SDS011;45078;51.654;21.250;2022-07-24T07:04:46;1.98;;;1.02;;
59310;SDS011;45078;51.654;21.250;2022-07-24T07:07:12;1.80;;;0.93;;
59310;SDS011;45078;51.654;21.250;2022-07-24T07:09:39;2.75;;;0.93;;
59310;SDS011;45078;51.654;21.250;2022-07-24T07:12:05;1.33;;;0.73;;
59310;SDS011;45078;51.654;21.250;2022-07-24T07:14:31;2.83;;;1.23;;
59310;SDS011;45078;51.654;21.250;2022-07-24T07:16:57;1.50;;;0.90;;
59310;SDS011;45078;51.654;21.250;2022-07-24T07:19:23;1.15;;;0.73;;
59310;SDS011;45078;51.654;21.250;2022-07-24T07:21:49;1.50;;;0.80;;
59310;SDS011;45078;51.654;21.250;2022-07-24T07:24:15;2.05;;;0.73;;
59310;SDS011;45078;51.654;21.250;2022-07-24T07:26:42;2.15;;;0.82;;
59310;SDS011;45078;51.654;21.250;2022-07-24T07:29:08;2.60;;;0.90;;
59310;SDS011;45078;51.654;21.250;2022-07-24T07:31:34;8.43;;;1.13;;
59310;SDS011;45078;51.654;21.250;2022-07-24T07:34:00;2.97;;;0.75;;
59310;SDS011;45078;51.654;21.250;2022-07-24T07:36:26;3.25;;;1.00;;
59310;SDS011;45078;51.654;21.250;2022-07-24T07:38:52;4.10;;;1.10;;
59310;SDS011;45078;51.654;21.250;2022-07-24T07:41:18;2.80;;;0.70;;
59310;SDS011;45078;51.654;21.250;2022-07-24T07:43:45;2.97;;;1.20;;
59310;SDS011;45078;51.654;21.250;2022-07-24T07:46:12;4.53;;;1.00;;
59310;SDS011;45078;51.654;21.250;2022-07-24T07:48:39;2.35;;;0.82;;
59310;SDS011;45078;51.654;21.250;2022-07-24T07:51:05;1.70;;;1.00;;
59310;SDS011;45078;51.654;21.250;2022-07-24T07:53:31;1.60;;;0.90;;
59310;SDS011;45078;51.654;21.250;2022-07-24T07:55:57;2.80;;;1.00;;
59310;SDS011;45078;51.654;21.250;2022-07-24T07:58:23;1.75;;;0.75;;
59310;SDS011;45078;51.654;21.250;2022-07-24T08:00:51;1.60;;;0.85;;
59310;SDS011;45078;51.654;21.250;2022-07-24T08:03:17;6.55;;;1.00;;
59310;SDS011;45078;51.654;21.250;2022-07-24T08:05:43;2.33;;;1.02;;
59310;SDS011;45078;51.654;21.250;2022-07-24T08:08:09;1.65;;;0.80;;
59310;SDS011;45078;51.654;21.250;2022-07-24T08:10:35;3.60;;;1.10;;
59310;SDS011;45078;51.654;21.250;2022-07-24T08:13:01;6.07;;;1.10;;
59310;SDS011;45078;51.654;21.250;2022-07-24T08:15:27;2.58;;;1.05;;
59310;SDS011;45078;51.654;21.250;2022-07-24T08:17:53;1.17;;;0.88;;
59310;SDS011;45078;51.654;21.250;2022-07-24T08:20:20;1.85;;;1.15;;
59310;SDS011;45078;51.654;21.250;2022-07-24T08:22:46;6.93;;;1.20;;
59310;SDS011;45078;51.654;21.250;2022-07-24T08:25:12;3.22;;;1.33;;
59310;SDS011;45078;51.654;21.250;2022-07-24T08:27:38;2.40;;;0.88;;
59310;SDS011;45078;51.654;21.250;2022-07-24T08:30:04;1.48;;;0.98;;
59310;SDS011;45078;51.654;21.250;2022-07-24T08:32:30;2.17;;;1.05;;
59310;SDS011;45078;51.654;21.250;2022-07-24T08:34:56;2.58;;;0.90;;
59310;SDS011;45078;51.654;21.250;2022-07-24T08:37:22;1.20;;;0.90;;
59310;SDS011;45078;51.654;21.250;2022-07-24T08:39:48;1.20;;;0.77;;
59310;SDS011;45078;51.654;21.250;2022-07-24T08:42:17;2.53;;;1.10;;
59310;SDS011;45078;51.654;21.250;2022-07-24T08:44:43;2.45;;;1.20;;
59310;SDS011;45078;51.654;21.250;2022-07-24T08:47:08;1.98;;;1.20;;
59310;SDS011;45078;51.654;21.250;2022-07-24T08:49:35;2.58;;;1.23;;
59310;SDS011;45078;51.654;21.250;2022-07-24T08:52:03;2.97;;;1.17;;
59310;SDS011;45078;51.654;21.250;2022-07-24T08:54:33;2.80;;;1.17;;
59310;SDS011;45078;51.654;21.250;2022-07-24T08:57:00;4.10;;;1.33;;
59310;SDS011;45078;51.654;21.250;2022-07-24T08:59:27;1.42;;;1.02;;
59310;SDS011;45078;51.654;21.250;2022-07-24T09:01:53;1.13;;;0.70;;
59310;SDS011;45078;51.654;21.250;2022-07-24T09:07:08;3.55;;;0.52;;
59310;SDS011;45078;51.654;21.250;2022-07-24T09:09:37;1.30;;;0.80;;
59310;SDS011;45078;51.654;21.250;2022-07-24T09:14:35;1.48;;;0.80;;
59310;SDS011;45078;51.654;21.250;2022-07-24T09:17:04;2.90;;;0.80;;
59310;SDS011;45078;51.654;21.250;2022-07-24T09:19:31;1.05;;;0.65;;
59310;SDS011;45078;51.654;21.250;2022-07-24T09:22:11;1.55;;;0.88;;
59310;SDS011;45078;51.654;21.250;2022-07-24T09:27:31;0.80;;;0.60;;
59310;SDS011;45078;51.654;21.250;2022-07-24T09:29:58;0.98;;;0.70;;
59310;SDS011;45078;51.654;21.250;2022-07-24T09:32:24;0.93;;;0.52;;
59310;SDS011;45078;51.654;21.250;2022-07-24T09:34:51;1.38;;;0.70;;
59310;SDS011;45078;51.654;21.250;2022-07-24T09:37:18;0.95;;;0.57;;
59310;SDS011;45078;51.654;21.250;2022-07-24T09:39:44;1.15;;;0.52;;
59310;SDS011;45078;51.654;21.250;2022-07-24T09:42:11;1.30;;;0.65;;
59310;SDS011;45078;51.654;21.250;2022-07-24T09:44:37;1.30;;;0.70;;
59310;SDS011;45078;51.654;21.250;2022-07-24T09:47:05;4.10;;;0.70;;
59310;SDS011;45078;51.654;21.250;2022-07-24T09:49:33;0.80;;;0.60;;
59310;SDS011;45078;51.654;21.250;2022-07-24T09:52:13;2.65;;;0.57;;
59310;SDS011;45078;51.654;21.250;2022-07-24T09:54:50;3.92;;;0.70;;
59310;SDS011;45078;51.654;21.250;2022-07-24T09:59:59;1.33;;;0.60;;
59310;SDS011;45078;51.654;21.250;2022-07-24T10:02:32;1.08;;;0.65;;
59310;SDS011;45078;51.654;21.250;2022-07-24T10:05:00;0.97;;;0.60;;
59310;SDS011;45078;51.654;21.250;2022-07-24T10:07:28;0.70;;;0.50;;
59310;SDS011;45078;51.654;21.250;2022-07-24T10:09:58;0.80;;;0.40;;
59310;SDS011;45078;51.654;21.250;2022-07-24T10:12:26;3.05;;;0.45;;
59310;SDS011;45078;51.654;21.250;2022-07-24T10:14:55;0.68;;;0.43;;
59310;SDS011;45078;51.654;21.250;2022-07-24T10:20:07;1.95;;;0.70;;
59310;SDS011;45078;51.654;21.250;2022-07-24T10:22:37;0.95;;;0.60;;
59310;SDS011;45078;51.654;21.250;2022-07-24T10:25:21;0.98;;;0.63;;
59310;SDS011;45078;51.654;21.250;2022-07-24T10:27:51;1.17;;;0.77;;
59310;SDS011;45078;51.654;21.250;2022-07-24T10:30:20;1.67;;;0.88;;
59310;SDS011;45078;51.654;21.250;2022-07-24T10:32:48;1.63;;;0.68;;
59310;SDS011;45078;51.654;21.250;2022-07-24T10:35:21;2.03;;;0.60;;
59310;SDS011;45078;51.654;21.250;2022-07-24T10:38:07;1.02;;;0.63;;
59310;SDS011;45078;51.654;21.250;2022-07-24T10:40:42;1.08;;;0.43;;
59310;SDS011;45078;51.654;21.250;2022-07-24T10:43:12;1.50;;;0.95;;
59310;SDS011;45078;51.654;21.250;2022-07-24T10:45:43;3.13;;;0.70;;
59310;SDS011;45078;51.654;21.250;2022-07-24T10:48:26;0.95;;;0.55;;
59310;SDS011;45078;51.654;21.250;2022-07-24T10:53:26;0.45;;;0.40;;
59310;SDS011;45078;51.654;21.250;2022-07-24T10:59:01;1.13;;;0.50;;
59310;SDS011;45078;51.654;21.250;2022-07-24T11:01:45;1.05;;;0.40;;
59310;SDS011;45078;51.654;21.250;2022-07-24T11:09:22;0.73;;;0.50;;
59310;SDS011;45078;51.654;21.250;2022-07-24T11:14:24;1.00;;;0.50;;
59310;SDS011;45078;51.654;21.250;2022-07-24T11:20:04;1.55;;;0.90;;
59310;SDS011;45078;51.654;21.250;2022-07-24T11:23:07;0.85;;;0.70;;
59310;SDS011;45078;51.654;21.250;2022-07-24T11:25:43;0.98;;;0.50;;
59310;SDS011;45078;51.654;21.250;2022-07-24T11:30:34;1.17;;;0.60;;
59310;SDS011;45078;51.654;21.250;2022-07-24T11:33:10;1.13;;;0.60;;
59310;SDS011;45078;51.654;21.250;2022-07-24T11:35:37;0.77;;;0.50;;
59310;SDS011;45078;51.654;21.250;2022-07-24T11:38:05;1.45;;;0.60;;
59310;SDS011;45078;51.654;21.250;2022-07-24T11:40:32;1.42;;;0.85;;
59310;SDS011;45078;51.654;21.250;2022-07-24T11:43:00;1.63;;;0.65;;
59310;SDS011;45078;51.654;21.250;2022-07-24T11:45:28;1.30;;;0.63;;
59310;SDS011;45078;51.654;21.250;2022-07-24T11:47:54;1.63;;;0.80;;
59310;SDS011;45078;51.654;21.250;2022-07-24T11:50:21;2.83;;;0.80;;
59310;SDS011;45078;51.654;21.250;2022-07-24T11:52:48;1.85;;;0.77;;
59310;SDS011;45078;51.654;21.250;2022-07-24T11:55:16;2.40;;;0.60;;
59310;SDS011;45078;51.654;21.250;2022-07-24T11:57:44;2.42;;;0.70;;
59310;SDS011;45078;51.654;21.250;2022-07-24T12:00:13;1.35;;;0.82;;
59310;SDS011;45078;51.654;21.250;2022-07-24T12:02:47;2.40;;;0.90;;
59310;SDS011;45078;51.654;21.250;2022-07-24T12:05:22;3.10;;;0.77;;
59310;SDS011;45078;51.654;21.250;2022-07-24T12:07:50;1.05;;;0.60;;
59310;SDS011;45078;51.654;21.250;2022-07-24T12:10:18;1.05;;;0.70;;
59310;SDS011;45078;51.654;21.250;2022-07-24T12:12:46;1.52;;;0.70;;
59310;SDS011;45078;51.654;21.250;2022-07-24T12:15:14;0.85;;;0.52;;
59310;SDS011;45078;51.654;21.250;2022-07-24T12:22:59;1.95;;;0.65;;
59310;SDS011;45078;51.654;21.250;2022-07-24T12:25:26;1.52;;;0.70;;
59310;SDS011;45078;51.654;21.250;2022-07-24T12:30:40;1.15;;;0.65;;
59310;SDS011;45078;51.654;21.250;2022-07-24T12:33:08;1.67;;;0.82;;
59310;SDS011;45078;51.654;21.250;2022-07-24T12:35:52;2.42;;;0.70;;
59310;SDS011;45078;51.654;21.250;2022-07-24T12:38:25;1.75;;;0.88;;
59310;SDS011;45078;51.654;21.250;2022-07-24T12:41:27;8.77;;;0.70;;
59310;SDS011;45078;51.654;21.250;2022-07-24T12:46:19;1.70;;;0.70;;
59310;SDS011;45078;51.654;21.250;2022-07-24T12:51:54;1.17;;;0.65;;
59310;SDS011;45078;51.654;21.250;2022-07-24T12:54:28;1.65;;;1.05;;
59310;SDS011;45078;51.654;21.250;2022-07-24T12:57:05;1.30;;;0.65;;
59310;SDS011;45078;51.654;21.250;2022-07-24T12:59:38;0.70;;;0.50;;
59310;SDS011;45078;51.654;21.250;2022-07-24T13:02:06;1.20;;;0.80;;
59310;SDS011;45078;51.654;21.250;2022-07-24T13:04:42;3.50;;;0.80;;
59310;SDS011;45078;51.654;21.250;2022-07-24T13:07:09;1.83;;;0.70;;
59310;SDS011;45078;51.654;21.250;2022-07-24T13:09:36;1.00;;;0.70;;
59310;SDS011;45078;51.654;21.250;2022-07-24T13:12:02;1.10;;;0.60;;
59310;SDS011;45078;51.654;21.250;2022-07-24T13:14:29;1.27;;;0.70;;
59310;SDS011;45078;51.654;21.250;2022-07-24T13:16:55;1.05;;;0.63;;
59310;SDS011;45078;51.654;21.250;2022-07-24T13:19:28;1.90;;;0.73;;
59310;SDS011;45078;51.654;21.250;2022-07-24T13:21:54;0.93;;;0.50;;
59310;SDS011;45078;51.654;21.250;2022-07-24T13:24:23;3.63;;;0.80;;
59310;SDS011;45078;51.654;21.250;2022-07-24T13:26:49;1.45;;;0.80;;
59310;SDS011;45078;51.654;21.250;2022-07-24T13:29:15;1.15;;;0.70;;
59310;SDS011;45078;51.654;21.250;2022-07-24T13:31:41;1.13;;;0.77;;
59310;SDS011;45078;51.654;21.250;2022-07-24T13:34:09;1.17;;;0.80;;
59310;SDS011;45078;51.654;21.250;2022-07-24T13:36:35;1.73;;;0.85;;
59310;SDS011;45078;51.654;21.250;2022-07-24T13:39:05;1.35;;;0.82;;
59310;SDS011;45078;51.654;21.250;2022-07-24T13:41:32;1.95;;;0.90;;
59310;SDS011;45078;51.654;21.250;2022-07-24T13:43:59;1.48;;;0.60;;
59310;SDS011;45078;51.654;21.250;2022-07-24T13:46:25;0.75;;;0.57;;
59310;SDS011;45078;51.654;21.250;2022-07-24T13:48:51;1.30;;;0.70;;
59310;SDS011;45078;51.654;21.250;2022-07-24T13:51:17;1.00;;;0.73;;
59310;SDS011;45078;51.654;21.250;2022-07-24T13:53:44;1.52;;;0.90;;
59310;SDS011;45078;51.654;21.250;2022-07-24T13:56:10;1.70;;;0.90;;
59310;SDS011;45078;51.654;21.250;2022-07-24T13:58:37;1.95;;;0.82;;
59310;SDS011;45078;51.654;21.250;2022-07-24T14:01:04;1.90;;;0.80;;
59310;SDS011;45078;51.654;21.250;2022-07-24T14:03:31;1.17;;;0.77;;
59310;SDS011;45078;51.654;21.250;2022-07-24T14:05:57;1.63;;;0.85;;
59310;SDS011;45078;51.654;21.250;2022-07-24T14:08:23;2.08;;;1.17;;
59310;SDS011;45078;51.654;21.250;2022-07-24T14:10:49;3.45;;;0.80;;
59310;SDS011;45078;51.654;21.250;2022-07-24T14:13:15;0.93;;;0.65;;
59310;SDS011;45078;51.654;21.250;2022-07-24T14:15:41;1.25;;;0.80;;
59310;SDS011;45078;51.654;21.250;2022-07-24T14:18:07;2.38;;;1.00;;
59310;SDS011;45078;51.654;21.250;2022-07-24T14:20:33;1.65;;;0.95;;
59310;SDS011;45078;51.654;21.250;2022-07-24T14:22:59;1.48;;;0.82;;
59310;SDS011;45078;51.654;21.250;2022-07-24T14:25:25;3.50;;;0.82;;
59310;SDS011;45078;51.654;21.250;2022-07-24T14:27:51;1.33;;;1.00;;
59310;SDS011;45078;51.654;21.250;2022-07-24T14:30:17;1.80;;;1.00;;
59310;SDS011;45078;51.654;21.250;2022-07-24T14:32:43;1.58;;;0.88;;
59310;SDS011;45078;51.654;21.250;2022-07-24T14:35:09;2.00;;;0.90;;
59310;SDS011;45078;51.654;21.250;2022-07-24T14:37:36;1.45;;;0.80;;
59310;SDS011;45078;51.654;21.250;2022-07-24T14:40:03;1.85;;;0.88;;
59310;SDS011;45078;51.654;21.250;2022-07-24T14:42:31;1.25;;;0.80;;
59310;SDS011;45078;51.654;21.250;2022-07-24T14:44:58;1.10;;;0.80;;
59310;SDS011;45078;51.654;21.250;2022-07-24T14:47:24;2.45;;;0.85;;
59310;SDS011;45078;51.654;21.250;2022-07-24T14:49:50;4.53;;;1.10;;
59310;SDS011;45078;51.654;21.250;2022-07-24T14:52:16;1.63;;;0.98;;
59310;SDS011;45078;51.654;21.250;2022-07-24T14:54:46;1.98;;;0.90;;
59310;SDS011;45078;51.654;21.250;2022-07-24T14:57:13;1.15;;;0.80;;
59310;SDS011;45078;51.654;21.250;2022-07-24T14:59:39;1.42;;;0.90;;
59310;SDS011;45078;51.654;21.250;2022-07-24T15:02:05;1.20;;;0.85;;
59310;SDS011;45078;51.654;21.250;2022-07-24T15:04:32;1.20;;;0.90;;
59310;SDS011;45078;51.654;21.250;2022-07-24T15:06:58;3.20;;;0.90;;
59310;SDS011;45078;51.654;21.250;2022-07-24T15:09:24;3.75;;;0.85;;
59310;SDS011;45078;51.654;21.250;2022-07-24T15:11:50;2.35;;;1.30;;
59310;SDS011;45078;51.654;21.250;2022-07-24T15:14:16;3.58;;;0.82;;
59310;SDS011;45078;51.654;21.250;2022-07-24T15:16:42;2.20;;;0.93;;
59310;SDS011;45078;51.654;21.250;2022-07-24T15:19:08;2.63;;;1.20;;